Loanda, Brazil
Current Conditions -  °F | °C
As of 10:00 PM on Friday 21 Nov 2014 (Local Time) from SBMG Reporting Station
Few Clouds Few Clouds  
Wind Chill: 77°   Ceiling: Unl
Heat Index: 79°   Visibility: 6mi
Dew Point: 68°   Wind: 7mph
Humidity: 74%   Direction: 20°NNE
Pressure: 29.88"   Gusts: NA
Location:  22.92°S, 53.14°W
Report Text: SBMG 220000Z 02006KT 9999 FEW045 25/20 Q1012
Loading
Personal Weather Stations






























Interactive Weather Map New forecast layout! Learn more

10-Day Weather Forecast

Advertisements
Track Severe Weather on mobile